sensor_id;sensor_type;location;lat;lon;timestamp;temperature;humidity
32660;DHT22;19064;47.912;12.308;2023-05-14T00:01:29;10.40;99.90
32660;DHT22;19064;47.912;12.308;2023-05-14T00:03:56;10.30;99.90
32660;DHT22;19064;47.912;12.308;2023-05-14T00:06:22;10.40;99.90
32660;DHT22;19064;47.912;12.308;2023-05-14T00:08:49;10.30;99.90
32660;DHT22;19064;47.912;12.308;2023-05-14T00:11:16;10.30;99.90
32660;DHT22;19064;47.912;12.308;2023-05-14T00:13:43;10.30;99.90
32660;DHT22;19064;47.912;12.308;2023-05-14T00:16:10;10.30;99.90
32660;DHT22;19064;47.912;12.308;2023-05-14T00:18:38;10.30;99.90
32660;DHT22;19064;47.912;12.308;2023-05-14T00:21:05;10.30;99.90
32660;DHT22;19064;47.912;12.308;2023-05-14T00:23:31;10.30;99.90
32660;DHT22;19064;47.912;12.308;2023-05-14T00:25:58;10.40;99.90
32660;DHT22;19064;47.912;12.308;2023-05-14T00:28:25;10.40;99.90
32660;DHT22;19064;47.912;12.308;2023-05-14T00:30:52;10.30;99.90
32660;DHT22;19064;47.912;12.308;2023-05-14T00:33:18;10.40;99.90
32660;DHT22;19064;47.912;12.308;2023-05-14T00:35:47;10.40;99.90
32660;DHT22;19064;47.912;12.308;2023-05-14T00:38:14;10.40;99.90
32660;DHT22;19064;47.912;12.308;2023-05-14T00:40:44;10.40;99.90
32660;DHT22;19064;47.912;12.308;2023-05-14T00:43:15;10.40;99.90
32660;DHT22;19064;47.912;12.308;2023-05-14T00:45:42;10.40;99.90
32660;DHT22;19064;47.912;12.308;2023-05-14T00:48:09;10.30;99.90
32660;DHT22;19064;47.912;12.308;2023-05-14T00:50:37;10.40;99.90
32660;DHT22;19064;47.912;12.308;2023-05-14T00:53:05;10.40;99.90
32660;DHT22;19064;47.912;12.308;2023-05-14T00:55:35;10.40;99.90
32660;DHT22;19064;47.912;12.308;2023-05-14T00:58:03;10.30;99.90
32660;DHT22;19064;47.912;12.308;2023-05-14T01:00:31;10.30;99.90
32660;DHT22;19064;47.912;12.308;2023-05-14T01:02:58;10.30;99.90
32660;DHT22;19064;47.912;12.308;2023-05-14T01:05:27;10.30;99.90
32660;DHT22;19064;47.912;12.308;2023-05-14T01:08:01;10.40;99.90
32660;DHT22;19064;47.912;12.308;2023-05-14T01:10:38;10.50;99.90
32660;DHT22;19064;47.912;12.308;2023-05-14T01:13:12;10.50;99.90
32660;DHT22;19064;47.912;12.308;2023-05-14T01:15:41;10.40;99.90
32660;DHT22;19064;47.912;12.308;2023-05-14T01:18:10;10.50;99.90
32660;DHT22;19064;47.912;12.308;2023-05-14T01:20:39;10.40;99.90
32660;DHT22;19064;47.912;12.308;2023-05-14T01:23:07;10.40;99.90
32660;DHT22;19064;47.912;12.308;2023-05-14T01:25:33;10.30;99.90
32660;DHT22;19064;47.912;12.308;2023-05-14T01:28:07;10.30;99.90
32660;DHT22;19064;47.912;12.308;2023-05-14T01:30:36;10.30;99.90
32660;DHT22;19064;47.912;12.308;2023-05-14T01:33:06;10.40;99.90
32660;DHT22;19064;47.912;12.308;2023-05-14T01:35:36;10.30;99.90
32660;DHT22;19064;47.912;12.308;2023-05-14T01:38:05;10.40;99.90
32660;DHT22;19064;47.912;12.308;2023-05-14T01:40:35;10.40;99.90
32660;DHT22;19064;47.912;12.308;2023-05-14T01:43:02;10.30;99.90
32660;DHT22;19064;47.912;12.308;2023-05-14T01:45:30;10.40;99.90
32660;DHT22;19064;47.912;12.308;2023-05-14T01:47:58;10.20;99.90
32660;DHT22;19064;47.912;12.308;2023-05-14T01:50:25;10.30;99.90
32660;DHT22;19064;47.912;12.308;2023-05-14T01:52:52;10.30;99.90
32660;DHT22;19064;47.912;12.308;2023-05-14T01:55:20;10.30;99.90
32660;DHT22;19064;47.912;12.308;2023-05-14T01:57:49;10.30;99.90
32660;DHT22;19064;47.912;12.308;2023-05-14T02:00:17;10.30;99.90
32660;DHT22;19064;47.912;12.308;2023-05-14T02:02:44;10.30;99.90
32660;DHT22;19064;47.912;12.308;2023-05-14T02:05:11;10.30;99.90
32660;DHT22;19064;47.912;12.308;2023-05-14T02:07:38;10.30;99.90
32660;DHT22;19064;47.912;12.308;2023-05-14T02:10:06;10.40;99.90
32660;DHT22;19064;47.912;12.308;2023-05-14T02:12:33;10.30;99.90
32660;DHT22;19064;47.912;12.308;2023-05-14T02:15:01;10.30;99.90
32660;DHT22;19064;47.912;12.308;2023-05-14T02:17:29;10.20;99.90
32660;DHT22;19064;47.912;12.308;2023-05-14T02:19:55;10.30;99.90
32660;DHT22;19064;47.912;12.308;2023-05-14T02:22:22;10.30;99.90
32660;DHT22;19064;47.912;12.308;2023-05-14T02:24:49;10.40;99.90
32660;DHT22;19064;47.912;12.308;2023-05-14T02:27:16;10.40;99.90
32660;DHT22;19064;47.912;12.308;2023-05-14T02:29:43;10.40;99.90
32660;DHT22;19064;47.912;12.308;2023-05-14T02:32:11;10.30;99.90
32660;DHT22;19064;47.912;12.308;2023-05-14T02:34:38;10.30;99.90
32660;DHT22;19064;47.912;12.308;2023-05-14T02:37:05;10.30;99.90
32660;DHT22;19064;47.912;12.308;2023-05-14T02:39:31;10.40;99.90
32660;DHT22;19064;47.912;12.308;2023-05-14T02:41:58;10.40;99.90
32660;DHT22;19064;47.912;12.308;2023-05-14T02:44:25;10.30;99.90
32660;DHT22;19064;47.912;12.308;2023-05-14T02:46:52;10.20;99.90
32660;DHT22;19064;47.912;12.308;2023-05-14T02:49:20;10.20;99.90
32660;DHT22;19064;47.912;12.308;2023-05-14T02:51:46;10.30;99.90
32660;DHT22;19064;47.912;12.308;2023-05-14T02:54:13;10.30;99.90
32660;DHT22;19064;47.912;12.308;2023-05-14T02:56:41;10.30;99.90
32660;DHT22;19064;47.912;12.308;2023-05-14T02:59:08;10.20;99.90
32660;DHT22;19064;47.912;12.308;2023-05-14T03:01:34;10.30;99.90
32660;DHT22;19064;47.912;12.308;2023-05-14T03:04:01;10.30;99.90
32660;DHT22;19064;47.912;12.308;2023-05-14T03:06:29;10.40;99.90
32660;DHT22;19064;47.912;12.308;2023-05-14T03:08:56;10.30;99.90
32660;DHT22;19064;47.912;12.308;2023-05-14T03:11:23;10.30;99.90
32660;DHT22;19064;47.912;12.308;2023-05-14T03:13:50;10.30;99.90
32660;DHT22;19064;47.912;12.308;2023-05-14T03:16:16;10.40;99.90
32660;DHT22;19064;47.912;12.308;2023-05-14T03:18:43;10.40;99.90
32660;DHT22;19064;47.912;12.308;2023-05-14T03:21:10;10.40;99.90
32660;DHT22;19064;47.912;12.308;2023-05-14T03:23:38;10.40;99.90
32660;DHT22;19064;47.912;12.308;2023-05-14T03:26:05;10.20;99.90
32660;DHT22;19064;47.912;12.308;2023-05-14T03:28:32;10.20;99.90
32660;DHT22;19064;47.912;12.308;2023-05-14T03:30:59;10.10;99.90
32660;DHT22;19064;47.912;12.308;2023-05-14T03:33:26;10.20;99.90
32660;DHT22;19064;47.912;12.308;2023-05-14T03:35:53;10.20;99.90
32660;DHT22;19064;47.912;12.308;2023-05-14T03:38:20;10.20;99.90
32660;DHT22;19064;47.912;12.308;2023-05-14T03:40:48;10.20;99.90
32660;DHT22;19064;47.912;12.308;2023-05-14T03:43:14;10.30;99.90
32660;DHT22;19064;47.912;12.308;2023-05-14T03:45:41;10.30;99.90
32660;DHT22;19064;47.912;12.308;2023-05-14T03:48:08;10.30;99.90
32660;DHT22;19064;47.912;12.308;2023-05-14T03:50:35;10.30;99.90
32660;DHT22;19064;47.912;12.308;2023-05-14T03:53:01;10.30;99.90
32660;DHT22;19064;47.912;12.308;2023-05-14T03:55:28;10.30;99.90
32660;DHT22;19064;47.912;12.308;2023-05-14T03:57:56;10.20;99.90
32660;DHT22;19064;47.912;12.308;2023-05-14T04:00:23;10.20;99.90
32660;DHT22;19064;47.912;12.308;2023-05-14T04:02:50;10.10;99.90
32660;DHT22;19064;47.912;12.308;2023-05-14T04:05:16;10.20;99.90
32660;DHT22;19064;47.912;12.308;2023-05-14T04:07:43;10.20;99.90
32660;DHT22;19064;47.912;12.308;2023-05-14T04:10:11;10.10;99.90
32660;DHT22;19064;47.912;12.308;2023-05-14T04:12:38;10.10;99.90
32660;DHT22;19064;47.912;12.308;2023-05-14T04:15:08;10.00;99.90
32660;DHT22;19064;47.912;12.308;2023-05-14T04:17:34;10.00;99.90
32660;DHT22;19064;47.912;12.308;2023-05-14T04:20:01;10.10;99.90
32660;DHT22;19064;47.912;12.308;2023-05-14T04:22:28;10.20;99.90
32660;DHT22;19064;47.912;12.308;2023-05-14T04:24:56;10.20;99.90
32660;DHT22;19064;47.912;12.308;2023-05-14T04:27:23;10.20;99.90
32660;DHT22;19064;47.912;12.308;2023-05-14T04:29:49;10.20;99.90
32660;DHT22;19064;47.912;12.308;2023-05-14T04:32:17;10.20;99.90
32660;DHT22;19064;47.912;12.308;2023-05-14T04:34:44;10.20;99.90
32660;DHT22;19064;47.912;12.308;2023-05-14T04:37:12;10.20;99.90
32660;DHT22;19064;47.912;12.308;2023-05-14T04:39:39;10.20;99.90
32660;DHT22;19064;47.912;12.308;2023-05-14T04:42:06;10.10;99.90
32660;DHT22;19064;47.912;12.308;2023-05-14T04:44:33;10.10;99.90
32660;DHT22;19064;47.912;12.308;2023-05-14T04:47:00;10.10;99.90
32660;DHT22;19064;47.912;12.308;2023-05-14T04:49:29;10.00;99.90
32660;DHT22;19064;47.912;12.308;2023-05-14T04:51:56;10.00;99.90
32660;DHT22;19064;47.912;12.308;2023-05-14T04:54:23;10.00;99.90
32660;DHT22;19064;47.912;12.308;2023-05-14T04:56:49;10.00;99.90
32660;DHT22;19064;47.912;12.308;2023-05-14T04:59:16;10.00;99.90
32660;DHT22;19064;47.912;12.308;2023-05-14T05:01:43;10.10;99.90
32660;DHT22;19064;47.912;12.308;2023-05-14T05:04:10;10.00;99.90
32660;DHT22;19064;47.912;12.308;2023-05-14T05:06:38;10.10;99.90
32660;DHT22;19064;47.912;12.308;2023-05-14T05:09:05;10.10;99.90
32660;DHT22;19064;47.912;12.308;2023-05-14T05:11:33;10.10;99.90
32660;DHT22;19064;47.912;12.308;2023-05-14T05:13:59;10.10;99.90
32660;DHT22;19064;47.912;12.308;2023-05-14T05:16:26;10.10;99.90
32660;DHT22;19064;47.912;12.308;2023-05-14T05:18:53;10.20;99.90
32660;DHT22;19064;47.912;12.308;2023-05-14T05:21:20;10.20;99.90
32660;DHT22;19064;47.912;12.308;2023-05-14T05:23:48;10.20;99.90
32660;DHT22;19064;47.912;12.308;2023-05-14T05:26:14;10.20;99.90
32660;DHT22;19064;47.912;12.308;2023-05-14T05:28:41;10.20;99.90
32660;DHT22;19064;47.912;12.308;2023-05-14T05:31:08;10.00;99.90
32660;DHT22;19064;47.912;12.308;2023-05-14T05:33:35;10.10;99.90
32660;DHT22;19064;47.912;12.308;2023-05-14T05:36:02;10.20;99.90
32660;DHT22;19064;47.912;12.308;2023-05-14T05:38:28;10.20;99.90
32660;DHT22;19064;47.912;12.308;2023-05-14T05:40:57;10.10;99.90
32660;DHT22;19064;47.912;12.308;2023-05-14T05:43:23;10.20;99.90
32660;DHT22;19064;47.912;12.308;2023-05-14T05:45:50;10.20;99.90
32660;DHT22;19064;47.912;12.308;2023-05-14T05:48:17;10.20;99.90
32660;DHT22;19064;47.912;12.308;2023-05-14T05:50:46;10.10;99.90
32660;DHT22;19064;47.912;12.308;2023-05-14T05:53:13;10.20;99.90
32660;DHT22;19064;47.912;12.308;2023-05-14T05:55:41;10.20;99.90
32660;DHT22;19064;47.912;12.308;2023-05-14T05:58:09;10.20;99.90
32660;DHT22;19064;47.912;12.308;2023-05-14T06:00:36;10.10;99.90
32660;DHT22;19064;47.912;12.308;2023-05-14T06:03:03;10.20;99.90
32660;DHT22;19064;47.912;12.308;2023-05-14T06:05:29;10.10;99.90
32660;DHT22;19064;47.912;12.308;2023-05-14T06:07:56;10.10;99.90
32660;DHT22;19064;47.912;12.308;2023-05-14T06:10:23;10.10;99.90
32660;DHT22;19064;47.912;12.308;2023-05-14T06:12:49;10.20;99.90
32660;DHT22;19064;47.912;12.308;2023-05-14T06:15:18;10.30;99.90
32660;DHT22;19064;47.912;12.308;2023-05-14T06:17:44;10.30;99.90
32660;DHT22;19064;47.912;12.308;2023-05-14T06:20:11;10.30;99.90
32660;DHT22;19064;47.912;12.308;2023-05-14T06:22:38;10.30;99.90
32660;DHT22;19064;47.912;12.308;2023-05-14T06:25:06;10.20;99.90
32660;DHT22;19064;47.912;12.308;2023-05-14T06:27:33;10.30;99.90
32660;DHT22;19064;47.912;12.308;2023-05-14T06:30:00;10.30;99.90
32660;DHT22;19064;47.912;12.308;2023-05-14T06:32:28;10.40;99.90
32660;DHT22;19064;47.912;12.308;2023-05-14T06:34:54;10.50;99.90
32660;DHT22;19064;47.912;12.308;2023-05-14T06:37:21;10.70;99.90
32660;DHT22;19064;47.912;12.308;2023-05-14T06:39:48;10.80;99.90
32660;DHT22;19064;47.912;12.308;2023-05-14T06:42:15;10.90;99.90
32660;DHT22;19064;47.912;12.308;2023-05-14T06:44:42;11.00;99.90
32660;DHT22;19064;47.912;12.308;2023-05-14T06:47:08;11.10;99.90
32660;DHT22;19064;47.912;12.308;2023-05-14T06:49:37;11.00;99.90
32660;DHT22;19064;47.912;12.308;2023-05-14T06:52:05;10.90;99.90
32660;DHT22;19064;47.912;12.308;2023-05-14T06:54:32;10.80;99.90
32660;DHT22;19064;47.912;12.308;2023-05-14T06:56:58;10.90;99.90
32660;DHT22;19064;47.912;12.308;2023-05-14T06:59:25;10.90;99.90
32660;DHT22;19064;47.912;12.308;2023-05-14T07:01:52;11.00;99.90
32660;DHT22;19064;47.912;12.308;2023-05-14T07:04:19;11.00;99.90
32660;DHT22;19064;47.912;12.308;2023-05-14T07:06:47;11.00;99.90
32660;DHT22;19064;47.912;12.308;2023-05-14T07:09:14;11.00;99.90
32660;DHT22;19064;47.912;12.308;2023-05-14T07:11:41;11.00;99.90
32660;DHT22;19064;47.912;12.308;2023-05-14T07:14:08;11.00;99.90
32660;DHT22;19064;47.912;12.308;2023-05-14T07:16:35;11.10;99.90
32660;DHT22;19064;47.912;12.308;2023-05-14T07:19:02;11.20;99.90
32660;DHT22;19064;47.912;12.308;2023-05-14T07:21:28;11.20;99.90
32660;DHT22;19064;47.912;12.308;2023-05-14T07:23:57;11.30;99.90
32660;DHT22;19064;47.912;12.308;2023-05-14T07:26:24;11.30;99.90
32660;DHT22;19064;47.912;12.308;2023-05-14T07:28:50;11.40;99.90
32660;DHT22;19064;47.912;12.308;2023-05-14T07:31:17;11.40;99.90
32660;DHT22;19064;47.912;12.308;2023-05-14T07:33:44;11.40;99.90
32660;DHT22;19064;47.912;12.308;2023-05-14T07:36:11;11.40;99.90
32660;DHT22;19064;47.912;12.308;2023-05-14T07:38:37;11.50;99.90
32660;DHT22;19064;47.912;12.308;2023-05-14T07:41:06;11.40;99.90
32660;DHT22;19064;47.912;12.308;2023-05-14T07:43:32;11.40;99.90
32660;DHT22;19064;47.912;12.308;2023-05-14T07:45:59;11.30;99.90
32660;DHT22;19064;47.912;12.308;2023-05-14T07:48:26;11.30;99.90
32660;DHT22;19064;47.912;12.308;2023-05-14T07:50:53;11.30;99.90
32660;DHT22;19064;47.912;12.308;2023-05-14T07:53:19;11.20;99.90
32660;DHT22;19064;47.912;12.308;2023-05-14T07:55:47;11.30;99.90
32660;DHT22;19064;47.912;12.308;2023-05-14T07:58:16;11.30;99.90
32660;DHT22;19064;47.912;12.308;2023-05-14T08:00:43;11.30;99.90
32660;DHT22;19064;47.912;12.308;2023-05-14T08:03:09;11.20;99.90
32660;DHT22;19064;47.912;12.308;2023-05-14T08:05:36;11.20;99.90
32660;DHT22;19064;47.912;12.308;2023-05-14T08:08:03;11.20;99.90
32660;DHT22;19064;47.912;12.308;2023-05-14T08:10:30;11.20;99.90
32660;DHT22;19064;47.912;12.308;2023-05-14T08:12:56;11.20;99.90
32660;DHT22;19064;47.912;12.308;2023-05-14T08:15:25;11.20;99.90
32660;DHT22;19064;47.912;12.308;2023-05-14T08:17:51;11.20;99.90
32660;DHT22;19064;47.912;12.308;2023-05-14T08:20:18;11.20;99.90
32660;DHT22;19064;47.912;12.308;2023-05-14T08:22:45;11.20;99.90
32660;DHT22;19064;47.912;12.308;2023-05-14T08:25:12;11.20;99.90
32660;DHT22;19064;47.912;12.308;2023-05-14T08:27:39;11.30;99.90
32660;DHT22;19064;47.912;12.308;2023-05-14T08:30:06;11.40;99.90
32660;DHT22;19064;47.912;12.308;2023-05-14T08:32:34;11.50;99.90
32660;DHT22;19064;47.912;12.308;2023-05-14T08:35:03;11.60;99.90
32660;DHT22;19064;47.912;12.308;2023-05-14T08:37:29;11.70;99.90
32660;DHT22;19064;47.912;12.308;2023-05-14T08:39:56;11.80;99.90
32660;DHT22;19064;47.912;12.308;2023-05-14T08:42:24;11.90;99.90
32660;DHT22;19064;47.912;12.308;2023-05-14T08:44:56;11.80;99.90
32660;DHT22;19064;47.912;12.308;2023-05-14T08:47:24;11.80;99.90
32660;DHT22;19064;47.912;12.308;2023-05-14T08:49:58;11.80;99.90
32660;DHT22;19064;47.912;12.308;2023-05-14T08:52:26;11.80;99.90
32660;DHT22;19064;47.912;12.308;2023-05-14T08:54:54;11.90;99.90
32660;DHT22;19064;47.912;12.308;2023-05-14T08:57:22;12.00;99.90
32660;DHT22;19064;47.912;12.308;2023-05-14T08:59:51;12.10;99.90
32660;DHT22;19064;47.912;12.308;2023-05-14T09:02:21;12.20;99.90
32660;DHT22;19064;47.912;12.308;2023-05-14T09:04:53;12.20;99.90
32660;DHT22;19064;47.912;12.308;2023-05-14T09:07:20;12.30;99.90
32660;DHT22;19064;47.912;12.308;2023-05-14T09:09:47;12.40;99.90
32660;DHT22;19064;47.912;12.308;2023-05-14T09:12:14;12.40;99.90
32660;DHT22;19064;47.912;12.308;2023-05-14T09:14:41;12.50;99.90
32660;DHT22;19064;47.912;12.308;2023-05-14T09:17:08;12.60;99.90
32660;DHT22;19064;47.912;12.308;2023-05-14T09:19:37;12.60;99.90
32660;DHT22;19064;47.912;12.308;2023-05-14T09:22:08;12.60;99.90
32660;DHT22;19064;47.912;12.308;2023-05-14T09:24:35;12.60;99.90
32660;DHT22;19064;47.912;12.308;2023-05-14T09:27:03;12.60;99.90
32660;DHT22;19064;47.912;12.308;2023-05-14T09:29:31;12.60;99.90
32660;DHT22;19064;47.912;12.308;2023-05-14T09:31:58;12.60;99.90
32660;DHT22;19064;47.912;12.308;2023-05-14T09:34:27;12.60;99.90
32660;DHT22;19064;47.912;12.308;2023-05-14T09:36:55;12.60;99.90
32660;DHT22;19064;47.912;12.308;2023-05-14T09:39:24;12.60;99.90
32660;DHT22;19064;47.912;12.308;2023-05-14T09:41:51;12.60;99.90
32660;DHT22;19064;47.912;12.308;2023-05-14T09:44:20;12.60;99.90
32660;DHT22;19064;47.912;12.308;2023-05-14T09:46:47;12.60;99.90
32660;DHT22;19064;47.912;12.308;2023-05-14T09:49:14;12.70;99.90
32660;DHT22;19064;47.912;12.308;2023-05-14T09:51:41;12.50;99.90
32660;DHT22;19064;47.912;12.308;2023-05-14T09:54:08;12.50;99.90
32660;DHT22;19064;47.912;12.308;2023-05-14T09:56:36;12.40;99.90
32660;DHT22;19064;47.912;12.308;2023-05-14T09:59:04;12.50;99.90
32660;DHT22;19064;47.912;12.308;2023-05-14T10:01:31;12.60;99.90
32660;DHT22;19064;47.912;12.308;2023-05-14T10:03:58;12.70;99.90
32660;DHT22;19064;47.912;12.308;2023-05-14T10:06:27;12.70;99.90
32660;DHT22;19064;47.912;12.308;2023-05-14T10:09:00;12.90;99.90
32660;DHT22;19064;47.912;12.308;2023-05-14T10:11:31;13.00;99.90
32660;DHT22;19064;47.912;12.308;2023-05-14T10:14:02;13.00;99.90
32660;DHT22;19064;47.912;12.308;2023-05-14T10:16:32;13.20;99.90
32660;DHT22;19064;47.912;12.308;2023-05-14T10:19:05;13.20;99.90
32660;DHT22;19064;47.912;12.308;2023-05-14T10:21:34;13.30;99.90
32660;DHT22;19064;47.912;12.308;2023-05-14T10:24:02;13.30;99.90
32660;DHT22;19064;47.912;12.308;2023-05-14T10:26:29;13.30;99.90
32660;DHT22;19064;47.912;12.308;2023-05-14T10:28:57;13.40;99.90
32660;DHT22;19064;47.912;12.308;2023-05-14T10:31:44;13.40;99.90
32660;DHT22;19064;47.912;12.308;2023-05-14T10:34:30;13.50;99.90
32660;DHT22;19064;47.912;12.308;2023-05-14T10:36:58;13.50;99.90
32660;DHT22;19064;47.912;12.308;2023-05-14T10:39:42;13.60;99.90
32660;DHT22;19064;47.912;12.308;2023-05-14T10:42:10;13.50;99.90
32660;DHT22;19064;47.912;12.308;2023-05-14T10:44:41;13.60;99.90
32660;DHT22;19064;47.912;12.308;2023-05-14T10:47:13;13.60;99.90
32660;DHT22;19064;47.912;12.308;2023-05-14T10:49:41;13.50;99.90
32660;DHT22;19064;47.912;12.308;2023-05-14T10:52:08;13.50;99.90
32660;DHT22;19064;47.912;12.308;2023-05-14T10:54:36;13.50;99.90
32660;DHT22;19064;47.912;12.308;2023-05-14T10:57:03;13.60;99.90
32660;DHT22;19064;47.912;12.308;2023-05-14T10:59:34;13.60;99.90
32660;DHT22;19064;47.912;12.308;2023-05-14T11:02:04;13.60;99.90
32660;DHT22;19064;47.912;12.308;2023-05-14T11:04:32;13.80;99.90
32660;DHT22;19064;47.912;12.308;2023-05-14T11:06:59;13.80;99.90
32660;DHT22;19064;47.912;12.308;2023-05-14T11:09:26;13.90;99.90
32660;DHT22;19064;47.912;12.308;2023-05-14T11:11:53;13.90;99.90
32660;DHT22;19064;47.912;12.308;2023-05-14T11:14:21;13.90;99.90
32660;DHT22;19064;47.912;12.308;2023-05-14T11:16:49;13.80;99.90
32660;DHT22;19064;47.912;12.308;2023-05-14T11:19:20;13.70;99.90
32660;DHT22;19064;47.912;12.308;2023-05-14T11:21:48;13.70;99.90
32660;DHT22;19064;47.912;12.308;2023-05-14T11:24:15;13.70;99.90
32660;DHT22;19064;47.912;12.308;2023-05-14T11:26:42;13.60;99.90
32660;DHT22;19064;47.912;12.308;2023-05-14T11:29:09;13.60;99.90
32660;DHT22;19064;47.912;12.308;2023-05-14T11:31:36;13.50;99.90
32660;DHT22;19064;47.912;12.308;2023-05-14T11:34:02;13.40;99.90
32660;DHT22;19064;47.912;12.308;2023-05-14T11:36:31;13.30;99.90
32660;DHT22;19064;47.912;12.308;2023-05-14T11:38:59;13.30;99.90
32660;DHT22;19064;47.912;12.308;2023-05-14T11:41:26;13.40;99.90
32660;DHT22;19064;47.912;12.308;2023-05-14T11:43:52;13.30;99.90
32660;DHT22;19064;47.912;12.308;2023-05-14T11:46:19;13.40;99.90
32660;DHT22;19064;47.912;12.308;2023-05-14T11:48:47;13.40;99.90
32660;DHT22;19064;47.912;12.308;2023-05-14T11:51:13;13.50;99.90
32660;DHT22;19064;47.912;12.308;2023-05-14T11:53:40;13.50;99.90
32660;DHT22;19064;47.912;12.308;2023-05-14T11:56:08;13.60;99.90
32660;DHT22;19064;47.912;12.308;2023-05-14T11:58:35;13.50;99.90
32660;DHT22;19064;47.912;12.308;2023-05-14T12:01:02;13.50;99.90
32660;DHT22;19064;47.912;12.308;2023-05-14T12:03:29;13.50;99.90
32660;DHT22;19064;47.912;12.308;2023-05-14T12:05:57;13.50;99.90
32660;DHT22;19064;47.912;12.308;2023-05-14T12:08:26;13.50;99.90
32660;DHT22;19064;47.912;12.308;2023-05-14T12:10:53;13.70;99.90
32660;DHT22;19064;47.912;12.308;2023-05-14T12:13:24;13.70;99.90
32660;DHT22;19064;47.912;12.308;2023-05-14T12:15:54;13.90;99.90
32660;DHT22;19064;47.912;12.308;2023-05-14T12:18:21;14.00;99.90
32660;DHT22;19064;47.912;12.308;2023-05-14T12:20:48;14.20;99.90
32660;DHT22;19064;47.912;12.308;2023-05-14T12:23:15;14.40;99.90
32660;DHT22;19064;47.912;12.308;2023-05-14T12:25:49;14.40;99.90
32660;DHT22;19064;47.912;12.308;2023-05-14T12:28:17;14.30;99.90
32660;DHT22;19064;47.912;12.308;2023-05-14T12:30:46;14.40;99.90
32660;DHT22;19064;47.912;12.308;2023-05-14T12:33:12;14.40;99.90
32660;DHT22;19064;47.912;12.308;2023-05-14T12:35:39;14.40;99.90
32660;DHT22;19064;47.912;12.308;2023-05-14T12:38:06;14.50;99.90
32660;DHT22;19064;47.912;12.308;2023-05-14T12:40:33;14.70;99.90
32660;DHT22;19064;47.912;12.308;2023-05-14T12:42:59;14.70;99.90
32660;DHT22;19064;47.912;12.308;2023-05-14T12:45:26;14.80;99.90
32660;DHT22;19064;47.912;12.308;2023-05-14T12:47:54;14.80;99.90
32660;DHT22;19064;47.912;12.308;2023-05-14T12:50:21;14.90;99.90
32660;DHT22;19064;47.912;12.308;2023-05-14T12:52:47;14.90;99.90
32660;DHT22;19064;47.912;12.308;2023-05-14T12:55:14;15.10;99.90
32660;DHT22;19064;47.912;12.308;2023-05-14T12:57:41;15.20;99.90
32660;DHT22;19064;47.912;12.308;2023-05-14T13:00:09;15.10;99.90
32660;DHT22;19064;47.912;12.308;2023-05-14T13:02:36;15.00;99.90
32660;DHT22;19064;47.912;12.308;2023-05-14T13:05:05;15.10;99.90
32660;DHT22;19064;47.912;12.308;2023-05-14T13:07:32;15.00;99.90
32660;DHT22;19064;47.912;12.308;2023-05-14T13:09:58;15.10;99.90
32660;DHT22;19064;47.912;12.308;2023-05-14T13:12:25;15.00;99.90
32660;DHT22;19064;47.912;12.308;2023-05-14T13:14:52;14.90;99.90
32660;DHT22;19064;47.912;12.308;2023-05-14T13:17:19;15.00;99.90
32660;DHT22;19064;47.912;12.308;2023-05-14T13:19:45;14.90;99.90
32660;DHT22;19064;47.912;12.308;2023-05-14T13:22:13;15.00;99.90
32660;DHT22;19064;47.912;12.308;2023-05-14T13:24:41;15.00;99.90
32660;DHT22;19064;47.912;12.308;2023-05-14T13:27:08;14.90;99.90
32660;DHT22;19064;47.912;12.308;2023-05-14T13:29:35;15.10;99.90
32660;DHT22;19064;47.912;12.308;2023-05-14T13:32:01;15.20;99.90
32660;DHT22;19064;47.912;12.308;2023-05-14T13:34:28;15.20;99.90
32660;DHT22;19064;47.912;12.308;2023-05-14T13:36:55;15.20;99.90
32660;DHT22;19064;47.912;12.308;2023-05-14T13:39:23;15.20;99.90
32660;DHT22;19064;47.912;12.308;2023-05-14T13:41:51;15.20;99.90
32660;DHT22;19064;47.912;12.308;2023-05-14T13:44:20;15.10;99.90
32660;DHT22;19064;47.912;12.308;2023-05-14T13:46:47;15.10;99.90
32660;DHT22;19064;47.912;12.308;2023-05-14T13:49:13;15.10;99.90
32660;DHT22;19064;47.912;12.308;2023-05-14T13:51:40;15.30;99.90
32660;DHT22;19064;47.912;12.308;2023-05-14T13:54:07;15.30;99.90
32660;DHT22;19064;47.912;12.308;2023-05-14T13:56:35;15.20;99.90
32660;DHT22;19064;47.912;12.308;2023-05-14T13:59:02;15.20;99.90
32660;DHT22;19064;47.912;12.308;2023-05-14T14:01:28;15.30;99.90
32660;DHT22;19064;47.912;12.308;2023-05-14T14:03:56;15.30;99.90
32660;DHT22;19064;47.912;12.308;2023-05-14T14:06:24;15.30;99.90
32660;DHT22;19064;47.912;12.308;2023-05-14T14:08:51;15.30;99.90
32660;DHT22;19064;47.912;12.308;2023-05-14T14:11:18;15.30;99.90
32660;DHT22;19064;47.912;12.308;2023-05-14T14:13:46;15.50;99.90
32660;DHT22;19064;47.912;12.308;2023-05-14T14:16:13;15.40;99.90
32660;DHT22;19064;47.912;12.308;2023-05-14T14:18:40;15.50;99.90
32660;DHT22;19064;47.912;12.308;2023-05-14T14:21:07;15.50;99.90
32660;DHT22;19064;47.912;12.308;2023-05-14T14:23:34;15.40;99.90
32660;DHT22;19064;47.912;12.308;2023-05-14T14:26:01;15.50;99.90
32660;DHT22;19064;47.912;12.308;2023-05-14T14:28:28;15.60;99.90
32660;DHT22;19064;47.912;12.308;2023-05-14T14:30:59;15.60;99.90
32660;DHT22;19064;47.912;12.308;2023-05-14T14:33:26;15.50;99.90
32660;DHT22;19064;47.912;12.308;2023-05-14T14:35:53;15.30;99.90
32660;DHT22;19064;47.912;12.308;2023-05-14T14:38:20;15.20;99.90
32660;DHT22;19064;47.912;12.308;2023-05-14T14:40:47;15.20;99.90
32660;DHT22;19064;47.912;12.308;2023-05-14T14:43:14;15.10;99.90
32660;DHT22;19064;47.912;12.308;2023-05-14T14:45:40;15.10;99.90
32660;DHT22;19064;47.912;12.308;2023-05-14T14:48:24;15.00;99.90
32660;DHT22;19064;47.912;12.308;2023-05-14T14:50:52;15.00;99.90
32660;DHT22;19064;47.912;12.308;2023-05-14T14:53:19;15.00;99.90
32660;DHT22;19064;47.912;12.308;2023-05-14T14:55:46;14.80;99.90
32660;DHT22;19064;47.912;12.308;2023-05-14T14:58:13;14.30;99.90
32660;DHT22;19064;47.912;12.308;2023-05-14T15:00:40;13.50;99.90
32660;DHT22;19064;47.912;12.308;2023-05-14T15:03:07;13.00;99.90
32660;DHT22;19064;47.912;12.308;2023-05-14T15:05:35;12.70;99.90
32660;DHT22;19064;47.912;12.308;2023-05-14T15:08:02;12.60;99.90
32660;DHT22;19064;47.912;12.308;2023-05-14T15:10:30;12.50;99.90
32660;DHT22;19064;47.912;12.308;2023-05-14T15:12:57;12.40;99.90
32660;DHT22;19064;47.912;12.308;2023-05-14T15:15:24;12.20;99.90
32660;DHT22;19064;47.912;12.308;2023-05-14T15:17:51;12.10;99.90